Time;durP1;ratioP1;P1;durP2;ratioP2;P2;SDS_P1;SDS_P2;PMS_P1;PMS_P2;Temp;Humidity;BMP_temperature;BMP_pressure;BME280_temperature;BME280_humidity;BME280_pressure;Samples;Min_cycle;Max_cycle;Signal;HPM_P1;HPM_P2
2023/06/01 00:00:49;;;;;;;4.10;2.00;;;;;;;;;;5068093;27;94472;-80
2023/06/01 00:03:16;;;;;;;4.45;2.08;;;;;;;;;;5059516;27;94697;-80
2023/06/01 00:05:43;;;;;;;4.78;2.30;;;;;;;;;;5081212;27;92157;-80
2023/06/01 00:08:10;;;;;;;4.18;2.13;;;;;;;;;;5079697;27;93099;-80
2023/06/01 00:10:36;;;;;;;4.03;2.05;;;;;;;;;;5076997;27;92863;-80
2023/06/01 00:13:03;;;;;;;5.15;1.90;;;;;;;;;;5070518;27;92364;-80
2023/06/01 00:15:29;;;;;;;3.97;1.83;;;;;;;;;;5068464;27;96006;-80
2023/06/01 00:17:57;;;;;;;5.05;2.22;;;;;;;;;;5081725;27;91310;-80
2023/06/01 00:20:24;;;;;;;4.97;1.90;;;;;;;;;;5081384;27;92095;-80
2023/06/01 00:22:51;;;;;;;;;;;;;;;;;;5080228;27;93037;-81
2023/06/01 00:25:17;;;;;;;4.57;1.73;;;;;;;;;;5063295;27;112265;-80
2023/06/01 00:27:44;;;;;;;4.35;1.83;;;;;;;;;;5060611;27;94844;-80
2023/06/01 00:30:10;;;;;;;5.28;2.10;;;;;;;;;;5060052;27;92837;-80
2023/06/01 00:32:37;;;;;;;3.63;1.92;;;;;;;;;;5078221;27;92112;-81
2023/06/01 00:35:04;;;;;;;3.60;1.95;;;;;;;;;;5060818;27;99811;-80
2023/06/01 00:37:30;;;;;;;4.22;1.80;;;;;;;;;;5063463;27;92128;-79
2023/06/01 00:39:57;;;;;;;4.03;1.88;;;;;;;;;;5063849;27;93072;-81
2023/06/01 00:42:23;;;;;;;3.58;1.80;;;;;;;;;;5062574;27;94769;-81
2023/06/01 00:44:50;;;;;;;4.40;2.05;;;;;;;;;;5044493;27;92089;-80
2023/06/01 00:47:16;;;;;;;4.55;2.15;;;;;;;;;;5071090;27;95060;-80
2023/06/01 00:49:43;;;;;;;3.33;1.67;;;;;;;;;;5080896;27;97649;-80
2023/06/01 00:52:09;;;;;;;5.18;1.90;;;;;;;;;;5082414;27;92069;-80
2023/06/01 00:54:36;;;;;;;5.13;1.90;;;;;;;;;;5073451;27;92650;-80
2023/06/01 00:57:03;;;;;;;4.75;2.13;;;;;;;;;;5068478;27;92438;-81
2023/06/01 00:59:29;;;;;;;5.38;1.90;;;;;;;;;;5078999;27;95094;-81
2023/06/01 01:01:55;;;;;;;5.32;1.92;;;;;;;;;;5065416;27;93082;-81
2023/06/01 01:04:25;;;;;;;4.85;1.73;;;;;;;;;;5044860;27;92313;-81
2023/06/01 01:07:04;;;;;;;4.32;1.95;;;;;;;;;;5081214;27;92853;-80
2023/06/01 01:09:49;;;;;;;4.45;1.90;;;;;;;;;;5082304;27;95136;-79
2023/06/01 01:12:16;;;;;;;4.97;2.05;;;;;;;;;;5064429;27;92175;-79
2023/06/01 01:14:48;;;;;;;4.43;1.80;;;;;;;;;;5072998;27;95170;-79
2023/06/01 01:17:19;;;;;;;5.65;1.90;;;;;;;;;;5082260;27;95350;-79
2023/06/01 01:19:53;;;;;;;4.07;1.88;;;;;;;;;;5065053;27;95306;-78
2023/06/01 01:22:40;;;;;;;3.58;1.70;;;;;;;;;;5078633;27;95432;-81
2023/06/01 01:25:11;;;;;;;4.20;2.00;;;;;;;;;;5061334;27;93462;-80
2023/06/01 01:27:38;;;;;;;5.03;1.77;;;;;;;;;;5051478;27;94718;-81
2023/06/01 01:30:06;;;;;;;3.78;1.80;;;;;;;;;;5075183;27;95767;-80
2023/06/01 01:32:35;;;;;;;3.15;1.60;;;;;;;;;;5077491;27;91301;-81
2023/06/01 01:35:04;;;;;;;3.92;1.67;;;;;;;;;;5072390;27;94290;-81
2023/06/01 01:37:32;;;;;;;3.72;1.70;;;;;;;;;;5082991;27;92175;-80
2023/06/01 01:39:58;;;;;;;3.67;1.80;;;;;;;;;;5085376;27;94973;-79
2023/06/01 01:42:25;;;;;;;4.38;1.95;;;;;;;;;;5076673;27;92600;-80
2023/06/01 01:44:52;;;;;;;3.38;1.63;;;;;;;;;;5063727;27;92202;-79
2023/06/01 01:47:18;;;;;;;4.10;1.70;;;;;;;;;;5064651;27;95054;-81
2023/06/01 01:49:48;;;;;;;4.35;1.70;;;;;;;;;;5064316;27;92670;-79
2023/06/01 01:52:20;;;;;;;4.40;1.70;;;;;;;;;;5061303;27;92230;-79
2023/06/01 01:54:49;;;;;;;5.45;1.98;;;;;;;;;;5060162;27;92898;-79
2023/06/01 01:57:17;;;;;;;4.32;1.80;;;;;;;;;;5060621;27;94635;-79
2023/06/01 01:59:47;;;;;;;4.03;1.70;;;;;;;;;;5072996;27;92196;-80
2023/06/01 02:02:14;;;;;;;4.13;1.80;;;;;;;;;;5073958;27;95109;-80
2023/06/01 02:04:41;;;;;;;4.78;1.90;;;;;;;;;;5056218;27;94451;-80
2023/06/01 02:07:09;;;;;;;4.15;1.83;;;;;;;;;;5067970;27;97292;-80
2023/06/01 02:09:35;;;;;;;;;;;;;;;;;;5081734;27;95574;-79
2023/06/01 02:12:03;;;;;;;3.83;1.60;;;;;;;;;;5076713;27;92133;-79
2023/06/01 02:14:32;;;;;;;4.45;1.80;;;;;;;;;;5067543;27;94558;-79
2023/06/01 02:17:00;;;;;;;4.32;1.73;;;;;;;;;;5059602;27;95096;-79
2023/06/01 02:19:27;;;;;;;4.20;1.77;;;;;;;;;;5062109;27;91934;-79
2023/06/01 02:21:53;;;;;;;3.17;1.70;;;;;;;;;;5064066;27;95185;-79
2023/06/01 02:24:20;;;;;;;5.03;1.80;;;;;;;;;;5072672;27;92080;-80
2023/06/01 02:26:48;;;;;;;5.10;1.75;;;;;;;;;;5079284;27;94974;-79
2023/06/01 02:29:15;;;;;;;4.18;1.70;;;;;;;;;;5062818;27;95403;-79
2023/06/01 02:31:42;;;;;;;4.68;1.65;;;;;;;;;;5065435;27;92079;-79
2023/06/01 02:34:09;;;;;;;3.90;1.60;;;;;;;;;;5074335;27;94834;-79
2023/06/01 02:36:36;;;;;;;4.20;1.70;;;;;;;;;;5080159;27;95084;-80
2023/06/01 02:39:02;;;;;;;3.05;1.90;;;;;;;;;;5072066;27;92121;-81
2023/06/01 02:41:29;;;;;;;3.42;1.65;;;;;;;;;;5061861;27;92415;-80
2023/06/01 02:43:56;;;;;;;4.32;1.80;;;;;;;;;;5063001;27;95018;-79
2023/06/01 02:46:22;;;;;;;4.57;1.80;;;;;;;;;;5047706;27;98811;-79
2023/06/01 02:48:51;;;;;;;3.88;1.80;;;;;;;;;;5079396;27;94446;-79
2023/06/01 02:51:18;;;;;;;3.97;1.60;;;;;;;;;;5080129;27;92396;-79
2023/06/01 02:53:48;;;;;;;5.40;1.90;;;;;;;;;;5079735;27;95195;-79
2023/06/01 02:56:15;;;;;;;4.00;1.70;;;;;;;;;;5070553;27;94907;-79
2023/06/01 02:59:16;;;;;;;3.97;1.73;;;;;;;;;;5050499;27;92214;-80
2023/06/01 03:01:48;;;;;;;4.88;1.83;;;;;;;;;;5062892;27;94717;-80
2023/06/01 03:04:15;;;;;;;3.90;1.60;;;;;;;;;;5064031;27;95707;-80
2023/06/01 03:06:43;;;;;;;4.40;1.70;;;;;;;;;;5068273;27;92142;-80
2023/06/01 03:09:25;;;;;;;3.15;1.55;;;;;;;;;;5080513;27;93699;-80
2023/06/01 03:11:58;;;;;;;4.47;1.80;;;;;;;;;;5072518;27;91465;-80
2023/06/01 03:14:26;;;;;;;5.32;1.80;;;;;;;;;;5079084;27;92855;-80
2023/06/01 03:16:53;;;;;;;4.75;1.90;;;;;;;;;;5068685;27;94574;-80
2023/06/01 03:19:21;;;;;;;4.03;1.67;;;;;;;;;;5078932;27;94621;-80
2023/06/01 03:21:51;;;;;;;4.25;1.80;;;;;;;;;;5077851;27;97297;-80
2023/06/01 03:24:21;;;;;;;4.53;1.80;;;;;;;;;;5059546;27;95324;-80
2023/06/01 03:26:47;;;;;;;5.10;1.90;;;;;;;;;;5073444;27;92625;-79
2023/06/01 03:29:14;;;;;;;4.93;1.88;;;;;;;;;;5063085;27;94850;-79
2023/06/01 03:31:42;;;;;;;4.20;1.73;;;;;;;;;;5059278;27;92116;-80
2023/06/01 03:34:08;;;;;;;5.63;2.10;;;;;;;;;;5062948;27;94732;-79
2023/06/01 03:36:36;;;;;;;3.55;1.90;;;;;;;;;;5063420;27;94861;-80
2023/06/01 03:39:07;;;;;;;4.88;1.90;;;;;;;;;;5072840;27;92241;-80
2023/06/01 03:41:35;;;;;;;4.00;1.90;;;;;;;;;;5066126;27;95747;-78
2023/06/01 03:44:03;;;;;;;4.70;1.85;;;;;;;;;;5078408;27;97582;-78
2023/06/01 03:46:30;;;;;;;4.40;1.77;;;;;;;;;;5057376;27;92672;-79
2023/06/01 03:48:56;;;;;;;4.85;1.80;;;;;;;;;;5058086;27;94934;-79
2023/06/01 03:51:23;;;;;;;4.38;1.85;;;;;;;;;;5063483;27;92647;-79
2023/06/01 03:53:50;;;;;;;4.78;1.90;;;;;;;;;;5058864;27;94633;-79
2023/06/01 03:56:17;;;;;;;5.18;1.88;;;;;;;;;;5059806;27;94540;-79
2023/06/01 03:58:44;;;;;;;3.88;1.80;;;;;;;;;;5057704;27;92309;-78
2023/06/01 04:01:12;;;;;;;5.18;2.08;;;;;;;;;;5070114;27;94289;-78
2023/06/01 04:03:39;;;;;;;4.93;2.00;;;;;;;;;;5079220;27;95235;-80
2023/06/01 04:06:11;;;;;;;4.97;2.00;;;;;;;;;;5066388;27;92683;-78
2023/06/01 04:08:48;;;;;;;4.75;2.00;;;;;;;;;;5047731;27;98682;-79
2023/06/01 04:11:17;;;;;;;5.00;1.88;;;;;;;;;;5054030;27;94676;-79
2023/06/01 04:13:44;;;;;;;4.60;1.90;;;;;;;;;;5085138;27;92676;-79
2023/06/01 04:16:11;;;;;;;4.68;2.00;;;;;;;;;;5078401;27;95457;-79
2023/06/01 04:18:39;;;;;;;5.57;1.88;;;;;;;;;;5082120;27;92351;-79
2023/06/01 04:21:09;;;;;;;5.38;1.98;;;;;;;;;;5076632;27;95432;-80
2023/06/01 04:23:37;;;;;;;5.10;1.98;;;;;;;;;;5061777;27;95205;-79
2023/06/01 04:26:04;;;;;;;4.13;1.90;;;;;;;;;;5062471;27;91329;-79
2023/06/01 04:28:32;;;;;;;3.38;1.73;;;;;;;;;;5062350;27;92469;-80
2023/06/01 04:30:59;;;;;;;3.50;1.80;;;;;;;;;;5062829;27;93008;-80
2023/06/01 04:36:56;;;;;;;3.95;1.90;;;;;;;;;;5077816;27;92173;-79
2023/06/01 04:39:23;;;;;;;4.03;1.88;;;;;;;;;;5078613;27;92452;-80
2023/06/01 04:41:49;;;;;;;4.88;2.20;;;;;;;;;;5073462;27;94654;-79
2023/06/01 04:44:18;;;;;;;4.95;2.03;;;;;;;;;;5081887;27;94847;-80
2023/06/01 04:46:46;;;;;;;3.80;1.80;;;;;;;;;;5081059;27;92708;-80
2023/06/01 04:49:15;;;;;;;;;;;;;;;;;;5082441;27;94802;-79
2023/06/01 04:51:42;;;;;;;4.82;1.90;;;;;;;;;;5082826;27;111829;-79
2023/06/01 04:54:09;;;;;;;4.95;1.85;;;;;;;;;;5065709;27;92186;-80
2023/06/01 04:56:35;;;;;;;;;;;;;;;;;;5068097;27;94446;-80
2023/06/01 04:59:05;;;;;;;5.93;1.92;;;;;;;;;;5064073;27;94442;-80
2023/06/01 05:01:32;;;;;;;5.40;2.10;;;;;;;;;;5082079;27;94786;-79
2023/06/01 05:04:00;;;;;;;4.97;1.92;;;;;;;;;;5083378;27;93313;-79
2023/06/01 05:06:27;;;;;;;5.03;1.90;;;;;;;;;;5064171;27;92172;-79
2023/06/01 05:08:54;;;;;;;4.55;2.05;;;;;;;;;;5081191;27;95378;-78
2023/06/01 05:11:21;;;;;;;4.55;1.85;;;;;;;;;;5080817;27;94544;-80
2023/06/01 05:13:50;;;;;;;5.57;2.08;;;;;;;;;;5081860;27;92154;-80
2023/06/01 05:16:17;;;;;;;5.38;2.08;;;;;;;;;;5077581;27;94842;-79
2023/06/01 05:18:44;;;;;;;6.30;2.05;;;;;;;;;;5052615;27;95194;-79
2023/06/01 05:21:10;;;;;;;4.65;2.08;;;;;;;;;;5073111;27;92696;-80
2023/06/01 05:23:37;;;;;;;4.97;1.90;;;;;;;;;;5079707;27;97437;-79
2023/06/01 05:26:04;;;;;;;4.82;1.80;;;;;;;;;;5083390;27;92022;-79
2023/06/01 05:28:33;;;;;;;4.78;2.03;;;;;;;;;;5067939;27;94694;-79
2023/06/01 05:31:03;;;;;;;4.47;1.80;;;;;;;;;;5078609;27;99003;-79
2023/06/01 05:33:33;;;;;;;4.38;2.00;;;;;;;;;;5075821;27;92523;-80
2023/06/01 05:36:00;;;;;;;5.45;2.30;;;;;;;;;;5082937;27;92431;-80
2023/06/01 05:38:27;;;;;;;4.82;2.13;;;;;;;;;;5081497;27;95233;-80
2023/06/01 05:40:53;;;;;;;4.88;2.08;;;;;;;;;;5070160;27;91686;-80
2023/06/01 05:43:20;;;;;;;5.78;2.10;;;;;;;;;;5074187;27;93174;-80
2023/06/01 05:45:48;;;;;;;6.30;2.15;;;;;;;;;;5067978;27;92227;-79
2023/06/01 05:48:14;;;;;;;5.28;2.10;;;;;;;;;;5079153;27;94867;-80
2023/06/01 05:50:46;;;;;;;5.15;2.13;;;;;;;;;;5080017;27;94985;-80
2023/06/01 05:53:12;;;;;;;5.32;1.98;;;;;;;;;;5063944;27;92501;-80
2023/06/01 05:55:39;;;;;;;5.30;2.00;;;;;;;;;;5070545;27;94861;-80
2023/06/01 05:58:05;;;;;;;5.60;2.05;;;;;;;;;;5061629;27;95131;-80
2023/06/01 06:00:34;;;;;;;5.15;2.20;;;;;;;;;;5070155;27;92060;-80
2023/06/01 06:03:01;;;;;;;4.00;1.95;;;;;;;;;;5063641;27;92864;-80
2023/06/01 06:05:28;;;;;;;5.57;1.88;;;;;;;;;;5060949;27;91525;-80
2023/06/01 06:07:55;;;;;;;4.68;1.90;;;;;;;;;;5075897;27;92773;-80
2023/06/01 06:10:21;;;;;;;4.82;2.10;;;;;;;;;;5068229;27;92366;-80
2023/06/01 06:12:48;;;;;;;5.97;2.17;;;;;;;;;;5061073;27;96150;-80
2023/06/01 06:15:14;;;;;;;5.10;2.10;;;;;;;;;;5081947;27;94865;-79
2023/06/01 06:17:41;;;;;;;4.28;1.90;;;;;;;;;;5080430;27;93059;-79
2023/06/01 06:20:08;;;;;;;4.40;2.08;;;;;;;;;;5082042;27;92487;-80
2023/06/01 06:22:34;;;;;;;5.97;2.17;;;;;;;;;;5082442;27;92385;-79
2023/06/01 06:25:01;;;;;;;5.72;2.00;;;;;;;;;;5082494;27;92238;-80
2023/06/01 06:27:28;;;;;;;4.53;1.92;;;;;;;;;;5070833;27;93304;-80
2023/06/01 06:29:54;;;;;;;3.90;1.95;;;;;;;;;;5073264;27;94470;-80
2023/06/01 06:32:21;;;;;;;5.05;1.90;;;;;;;;;;5081472;27;92073;-80
2023/06/01 06:34:48;;;;;;;4.50;2.03;;;;;;;;;;5081923;27;92354;-81
2023/06/01 06:37:15;;;;;;;5.15;2.00;;;;;;;;;;5079899;27;95334;-81
2023/06/01 06:39:43;;;;;;;4.82;2.03;;;;;;;;;;5080520;27;92655;-80
2023/06/01 06:42:10;;;;;;;4.45;1.90;;;;;;;;;;5073262;27;92687;-80
2023/06/01 06:44:36;;;;;;;5.57;2.10;;;;;;;;;;5080781;27;95275;-80
2023/06/01 06:47:03;;;;;;;4.85;2.00;;;;;;;;;;5080515;27;99264;-80
2023/06/01 06:49:29;;;;;;;4.95;2.08;;;;;;;;;;5081620;27;93325;-80
2023/06/01 06:51:56;;;;;;;5.68;2.22;;;;;;;;;;5071902;27;92120;-81
2023/06/01 06:54:22;;;;;;;7.05;2.50;;;;;;;;;;5080580;27;91727;-80
2023/06/01 06:56:49;;;;;;;6.15;2.20;;;;;;;;;;5064912;27;92815;-80
2023/06/01 06:59:16;;;;;;;4.30;1.95;;;;;;;;;;5059777;27;92149;-80
2023/06/01 07:01:43;;;;;;;4.93;2.40;;;;;;;;;;5075196;27;94518;-80
2023/06/01 07:04:10;;;;;;;5.22;2.30;;;;;;;;;;5072093;27;92230;-80
2023/06/01 07:06:37;;;;;;;5.55;2.30;;;;;;;;;;5084070;27;92544;-80
2023/06/01 07:09:05;;;;;;;5.75;2.13;;;;;;;;;;5070845;27;97970;-81
2023/06/01 07:11:32;;;;;;;6.32;2.47;;;;;;;;;;5076180;27;92984;-80
2023/06/01 07:13:58;;;;;;;5.35;2.20;;;;;;;;;;5082099;27;92378;-80
2023/06/01 07:16:25;;;;;;;5.20;2.53;;;;;;;;;;5070166;27;93705;-81
2023/06/01 07:18:52;;;;;;;6.45;2.47;;;;;;;;;;5079507;27;91433;-79
2023/06/01 07:21:19;;;;;;;6.72;2.47;;;;;;;;;;5075304;27;94480;-80
2023/06/01 07:23:46;;;;;;;6.18;2.35;;;;;;;;;;5080102;27;92801;-80
2023/06/01 07:26:12;;;;;;;5.78;2.30;;;;;;;;;;5080145;27;95132;-81
2023/06/01 07:28:40;;;;;;;6.45;2.40;;;;;;;;;;5083999;27;94771;-81
2023/06/01 07:31:07;;;;;;;5.78;2.30;;;;;;;;;;5081215;27;92052;-81
2023/06/01 07:33:35;;;;;;;6.13;2.60;;;;;;;;;;5077375;27;92725;-80
2023/06/01 07:36:03;;;;;;;7.40;2.72;;;;;;;;;;5079771;27;93256;-80
2023/06/01 07:38:31;;;;;;;6.07;2.67;;;;;;;;;;5080013;27;92439;-80
2023/06/01 07:40:57;;;;;;;6.78;2.47;;;;;;;;;;5078778;27;92672;-80
2023/06/01 07:43:24;;;;;;;7.35;2.60;;;;;;;;;;5083743;27;92129;-80
2023/06/01 07:45:51;;;;;;;6.07;2.42;;;;;;;;;;5084947;27;92267;-80
2023/06/01 07:48:17;;;;;;;7.32;2.72;;;;;;;;;;5084832;27;92552;-80
2023/06/01 07:50:44;;;;;;;6.13;2.40;;;;;;;;;;5085332;27;95966;-80
2023/06/01 07:53:11;;;;;;;5.60;2.53;;;;;;;;;;5074372;27;94700;-80
2023/06/01 07:55:37;;;;;;;6.80;2.58;;;;;;;;;;5075632;27;93153;-80
2023/06/01 07:58:05;;;;;;;7.25;2.85;;;;;;;;;;5084696;27;92052;-80
2023/06/01 08:00:31;;;;;;;;;;;;;;;;;;5084461;27;92893;-80
2023/06/01 08:02:59;;;;;;;5.95;2.42;;;;;;;;;;5066080;27;97018;-80
2023/06/01 08:05:25;;;;;;;6.57;2.70;;;;;;;;;;5076348;27;92069;-81
2023/06/01 08:07:52;;;;;;;6.32;2.80;;;;;;;;;;5077446;27;92116;-80
2023/06/01 08:10:19;;;;;;;6.15;2.60;;;;;;;;;;5084068;27;92723;-80
2023/06/01 08:12:47;;;;;;;6.82;2.90;;;;;;;;;;5078081;27;92676;-81
2023/06/01 08:15:15;;;;;;;6.43;2.60;;;;;;;;;;5082453;27;95833;-80
2023/06/01 08:17:43;;;;;;;5.80;2.50;;;;;;;;;;5073542;27;92331;-81
2023/06/01 08:20:10;;;;;;;7.05;3.00;;;;;;;;;;5079267;27;95030;-81
2023/06/01 08:22:37;;;;;;;6.90;3.05;;;;;;;;;;5082362;27;95540;-80
2023/06/01 08:25:05;;;;;;;6.75;2.63;;;;;;;;;;5084078;27;92183;-80
2023/06/01 08:27:32;;;;;;;6.32;2.90;;;;;;;;;;5083583;27;94277;-80
2023/06/01 08:29:58;;;;;;;6.15;2.60;;;;;;;;;;5084545;27;92738;-80
2023/06/01 08:32:25;;;;;;;5.85;2.50;;;;;;;;;;5080370;27;91520;-80
2023/06/01 08:34:52;;;;;;;6.20;2.65;;;;;;;;;;5075909;27;92331;-80
2023/06/01 08:37:18;;;;;;;6.93;2.63;;;;;;;;;;5080072;27;92334;-80
2023/06/01 08:39:45;;;;;;;6.82;2.60;;;;;;;;;;5082436;27;94630;-80
2023/06/01 08:42:26;;;;;;;7.72;2.72;;;;;;;;;;5083102;27;95242;-80
2023/06/01 08:44:53;;;;;;;6.30;2.78;;;;;;;;;;5083297;27;92596;-81
2023/06/01 08:47:20;;;;;;;6.38;2.72;;;;;;;;;;5083422;27;92838;-81
2023/06/01 08:49:48;;;;;;;6.38;2.95;;;;;;;;;;5066563;27;95150;-80
2023/06/01 08:52:18;;;;;;;5.95;2.70;;;;;;;;;;5073810;27;92124;-80
2023/06/01 08:54:44;;;;;;;5.43;2.45;;;;;;;;;;5079765;27;92904;-80
2023/06/01 08:57:11;;;;;;;6.70;2.50;;;;;;;;;;5075218;27;91493;-80
2023/06/01 08:59:39;;;;;;;6.60;2.83;;;;;;;;;;5077939;27;94907;-80
2023/06/01 09:02:05;;;;;;;6.13;2.55;;;;;;;;;;5080124;27;92642;-81
2023/06/01 09:04:34;;;;;;;6.82;2.78;;;;;;;;;;5057278;27;94534;-81
2023/06/01 09:07:01;;;;;;;5.40;2.55;;;;;;;;;;5074389;27;97625;-81
2023/06/01 09:09:28;;;;;;;6.85;2.70;;;;;;;;;;5082454;27;92702;-81
2023/06/01 09:12:34;;;;;;;6.85;2.67;;;;;;;;;;5080792;27;96597;-79
2023/06/01 09:15:16;;;;;;;6.72;2.53;;;;;;;;;;5017719;28;92565;-80
2023/06/01 09:17:46;;;;;;;5.78;2.50;;;;;;;;;;4985698;28;95335;-79
2023/06/01 09:20:32;;;;;;;6.47;2.50;;;;;;;;;;5053592;27;92413;-80
2023/06/01 09:22:58;;;;;;;6.32;2.40;;;;;;;;;;5082225;27;91896;-80
2023/06/01 09:25:29;;;;;;;6.07;2.50;;;;;;;;;;5083446;27;92696;-80
2023/06/01 09:27:57;;;;;;;5.63;2.45;;;;;;;;;;5083179;27;92675;-80
2023/06/01 09:30:24;;;;;;;5.90;2.42;;;;;;;;;;5080245;27;94958;-81
2023/06/01 09:32:52;;;;;;;;;;;;;;;;;;5071277;27;92198;-80
2023/06/01 09:35:48;;;;;;;5.90;2.47;;;;;;;;;;5084626;27;104958;-81
2023/06/01 09:38:22;;;;;;;6.35;2.72;;;;;;;;;;5069871;27;93404;-81
2023/06/01 09:40:59;;;;;;;5.57;2.47;;;;;;;;;;5085770;27;92066;-81
2023/06/01 09:43:26;;;;;;;5.32;2.38;;;;;;;;;;5081454;27;93010;-80
2023/06/01 09:46:09;;;;;;;5.60;2.30;;;;;;;;;;5079484;27;92703;-81
2023/06/01 09:48:36;;;;;;;5.30;2.33;;;;;;;;;;5082024;27;92356;-81
2023/06/01 09:51:03;;;;;;;6.40;2.30;;;;;;;;;;5082330;27;98043;-80
2023/06/01 09:53:48;;;;;;;6.50;2.47;;;;;;;;;;5078664;27;92500;-81
2023/06/01 09:56:14;;;;;;;6.35;2.38;;;;;;;;;;5067841;27;95090;-80
2023/06/01 09:58:41;;;;;;;6.10;2.50;;;;;;;;;;5080644;27;92438;-80
2023/06/01 10:01:08;;;;;;;5.55;2.30;;;;;;;;;;5050411;27;92291;-80
2023/06/01 10:03:40;;;;;;;4.47;2.15;;;;;;;;;;5080572;27;92571;-80
2023/06/01 10:06:07;;;;;;;5.15;2.20;;;;;;;;;;5074641;27;92016;-80
2023/06/01 10:08:34;;;;;;;5.05;2.20;;;;;;;;;;5078624;27;92796;-80
2023/06/01 10:11:01;;;;;;;5.80;2.30;;;;;;;;;;5069577;27;93287;-80
2023/06/01 10:13:28;;;;;;;5.28;2.20;;;;;;;;;;5070466;27;91606;-80
2023/06/01 10:15:55;;;;;;;5.57;2.20;;;;;;;;;;5075569;27;92346;-81
2023/06/01 10:18:21;;;;;;;5.60;2.30;;;;;;;;;;5074084;27;94699;-81
2023/06/01 10:20:48;;;;;;;6.32;2.63;;;;;;;;;;5066306;27;95651;-80
2023/06/01 10:23:15;;;;;;;4.85;2.20;;;;;;;;;;5066967;27;94896;-81
2023/06/01 10:25:57;;;;;;;5.72;2.25;;;;;;;;;;5072865;27;92388;-81
2023/06/01 10:28:25;;;;;;;4.65;2.00;;;;;;;;;;5063570;27;94229;-80
2023/06/01 10:31:10;;;;;;;5.60;2.20;;;;;;;;;;5059999;27;95539;-80
2023/06/01 10:33:52;;;;;;;6.85;2.22;;;;;;;;;;5077057;27;92615;-81
2023/06/01 10:36:19;;;;;;;5.70;2.33;;;;;;;;;;5082375;27;92648;-81
2023/06/01 10:38:45;;;;;;;7.13;2.50;;;;;;;;;;5065825;27;94038;-81
2023/06/01 10:41:26;;;;;;;5.50;2.50;;;;;;;;;;5079582;27;94504;-81
2023/06/01 10:43:53;;;;;;;6.47;2.38;;;;;;;;;;5082275;27;92735;-81
2023/06/01 10:46:33;;;;;;;5.47;2.15;;;;;;;;;;5074307;27;95079;-80
2023/06/01 10:49:03;;;;;;;5.93;2.35;;;;;;;;;;5076084;27;92559;-80
2023/06/01 10:51:30;;;;;;;5.65;2.20;;;;;;;;;;5079748;27;93308;-80
2023/06/01 10:54:15;;;;;;;5.05;2.20;;;;;;;;;;5082004;27;92416;-79
2023/06/01 10:56:42;;;;;;;5.60;2.15;;;;;;;;;;5079752;27;92593;-79
2023/06/01 10:59:08;;;;;;;6.18;2.13;;;;;;;;;;5080341;27;92717;-80
2023/06/01 11:01:45;;;;;;;5.47;2.20;;;;;;;;;;5081532;27;92355;-80
2023/06/01 11:04:12;;;;;;;;;;;;;;;;;;5071769;27;92905;-79
2023/06/01 11:06:40;;;;;;;4.63;1.92;;;;;;;;;;5078653;27;103441;-80
2023/06/01 11:09:10;;;;;;;4.40;2.03;;;;;;;;;;5076560;27;95309;-80
2023/06/01 11:11:52;;;;;;;4.43;1.80;;;;;;;;;;5073599;27;95125;-80
2023/06/01 11:14:26;;;;;;;4.32;1.90;;;;;;;;;;5081644;27;92004;-80
2023/06/01 11:16:54;;;;;;;4.80;1.98;;;;;;;;;;5079564;27;92125;-80
2023/06/01 11:19:24;;;;;;;5.10;2.17;;;;;;;;;;5063334;27;96196;-80
2023/06/01 11:21:55;;;;;;;5.78;2.10;;;;;;;;;;5062729;27;92119;-81
2023/06/01 11:24:22;;;;;;;6.07;2.10;;;;;;;;;;5074622;27;92491;-81
2023/06/01 11:26:49;;;;;;;4.97;2.35;;;;;;;;;;5081006;27;92755;-81
2023/06/01 11:29:16;;;;;;;;;;;;;;;;;;5081079;27;91493;-80
2023/06/01 11:32:03;;;;;;;4.68;2.00;;;;;;;;;;5085124;27;119828;-81
2023/06/01 11:34:44;;;;;;;4.75;2.00;;;;;;;;;;5076223;27;92191;-81
2023/06/01 11:37:14;;;;;;;4.85;1.80;;;;;;;;;;5063360;27;99607;-81
2023/06/01 11:39:41;;;;;;;3.15;1.63;;;;;;;;;;5079972;27;92575;-81
2023/06/01 11:42:08;;;;;;;4.07;1.80;;;;;;;;;;5081572;27;92329;-80
2023/06/01 11:44:35;;;;;;;5.15;1.90;;;;;;;;;;5063090;27;94353;-81
2023/06/01 11:47:03;;;;;;;3.55;1.70;;;;;;;;;;5077731;27;94958;-80
2023/06/01 11:49:30;;;;;;;5.00;1.85;;;;;;;;;;5080958;27;92171;-80
2023/06/01 11:51:57;;;;;;;4.07;1.70;;;;;;;;;;5068029;27;92356;-80
2023/06/01 11:54:26;;;;;;;3.63;1.75;;;;;;;;;;5084611;27;92058;-80
2023/06/01 11:56:53;;;;;;;4.63;1.80;;;;;;;;;;5079469;27;92140;-80
2023/06/01 11:59:23;;;;;;;3.67;1.83;;;;;;;;;;5080602;27;92609;-79
2023/06/01 12:01:51;;;;;;;4.43;1.98;;;;;;;;;;5055481;27;94951;-79
2023/06/01 12:04:19;;;;;;;4.47;1.95;;;;;;;;;;5071938;27;94368;-80
2023/06/01 12:06:46;;;;;;;4.22;1.70;;;;;;;;;;5077051;27;93276;-80
2023/06/01 12:09:15;;;;;;;3.40;1.50;;;;;;;;;;5080605;27;92132;-80
2023/06/01 12:11:43;;;;;;;4.00;1.67;;;;;;;;;;5078616;27;92389;-80
2023/06/01 12:14:14;;;;;;;4.38;1.70;;;;;;;;;;5080630;27;93343;-80
2023/06/01 12:16:58;;;;;;;3.80;1.75;;;;;;;;;;5081554;27;92630;-80
2023/06/01 12:19:26;;;;;;;4.18;1.63;;;;;;;;;;5063263;27;94517;-80
2023/06/01 12:21:56;;;;;;;5.18;1.70;;;;;;;;;;5075176;27;92110;-80
2023/06/01 12:24:29;;;;;;;4.53;1.80;;;;;;;;;;5079718;27;92159;-80
2023/06/01 12:26:57;;;;;;;4.25;1.80;;;;;;;;;;5077571;27;95149;-80
2023/06/01 12:29:36;;;;;;;3.75;1.70;;;;;;;;;;5082697;27;92068;-80
2023/06/01 12:32:03;;;;;;;4.00;1.70;;;;;;;;;;5071957;27;94962;-80
2023/06/01 12:34:30;;;;;;;4.35;1.67;;;;;;;;;;5082392;27;94987;-80
2023/06/01 12:36:56;;;;;;;4.45;1.63;;;;;;;;;;5081078;27;92076;-81
2023/06/01 12:39:36;;;;;;;4.28;1.85;;;;;;;;;;5085517;27;95158;-81
2023/06/01 12:42:05;;;;;;;3.17;1.52;;;;;;;;;;5082791;27;92039;-81
2023/06/01 12:44:34;;;;;;;4.82;1.73;;;;;;;;;;5081382;27;92417;-81
2023/06/01 12:47:03;;;;;;;4.45;1.65;;;;;;;;;;5079009;27;92926;-80
2023/06/01 12:49:30;;;;;;;2.97;1.60;;;;;;;;;;5078225;27;92851;-80
2023/06/01 12:51:56;;;;;;;4.22;1.70;;;;;;;;;;5082028;27;94534;-80
2023/06/01 12:54:23;;;;;;;3.70;1.60;;;;;;;;;;5082671;27;93581;-80
2023/06/01 12:56:50;;;;;;;4.25;1.73;;;;;;;;;;5074431;27;92458;-81
2023/06/01 12:59:17;;;;;;;;;;;;;;;;;;5079071;27;93476;-80
2023/06/01 13:01:43;;;;;;;5.00;1.80;;;;;;;;;;5083159;27;114862;-80
2023/06/01 13:04:10;;;;;;;3.83;1.63;;;;;;;;;;5082782;27;92387;-79
2023/06/01 13:06:38;;;;;;;4.60;1.98;;;;;;;;;;5083009;27;92590;-80
2023/06/01 13:09:06;;;;;;;4.10;1.60;;;;;;;;;;5065904;27;93399;-81
2023/06/01 13:11:33;;;;;;;3.92;1.63;;;;;;;;;;5083159;27;94165;-79
2023/06/01 13:13:59;;;;;;;5.35;1.80;;;;;;;;;;5082327;27;95327;-81
2023/06/01 13:16:27;;;;;;;3.92;1.70;;;;;;;;;;5078933;27;94807;-81
2023/06/01 13:18:54;;;;;;;4.43;1.63;;;;;;;;;;5083208;27;95085;-80
2023/06/01 13:21:20;;;;;;;3.47;1.58;;;;;;;;;;5067481;27;95279;-81
2023/06/01 13:23:48;;;;;;;4.13;1.70;;;;;;;;;;5081568;27;94327;-81
2023/06/01 13:26:14;;;;;;;5.38;1.77;;;;;;;;;;5081587;27;92822;-81
2023/06/01 13:28:41;;;;;;;3.65;1.60;;;;;;;;;;5066508;27;92535;-81
2023/06/01 13:31:07;;;;;;;4.40;1.50;;;;;;;;;;5068511;27;92206;-81
2023/06/01 13:33:34;;;;;;;4.63;1.60;;;;;;;;;;5077659;27;92104;-81
2023/06/01 13:36:01;;;;;;;5.07;1.70;;;;;;;;;;5082939;27;92051;-81
2023/06/01 13:38:28;;;;;;;;;;;;;;;;;;5081228;27;92500;-81
2023/06/01 13:40:55;;;;;;;3.92;1.60;;;;;;;;;;5078697;27;102898;-81
2023/06/01 13:43:21;;;;;;;4.40;1.70;;;;;;;;;;5083986;27;92773;-81
2023/06/01 13:45:48;;;;;;;2.38;1.40;;;;;;;;;;5058195;27;95423;-81
2023/06/01 13:48:15;;;;;;;4.20;1.67;;;;;;;;;;5081487;27;92722;-81
2023/06/01 13:50:45;;;;;;;3.95;1.70;;;;;;;;;;5082353;27;92654;-81
2023/06/01 13:53:11;;;;;;;4.22;1.55;;;;;;;;;;5065831;27;95119;-81
2023/06/01 13:55:39;;;;;;;5.07;1.70;;;;;;;;;;5069913;27;99313;-81
2023/06/01 13:58:05;;;;;;;4.03;1.70;;;;;;;;;;5076252;27;92675;-80
2023/06/01 14:00:32;;;;;;;4.53;1.50;;;;;;;;;;5065309;27;93789;-80
2023/06/01 14:02:59;;;;;;;3.88;1.60;;;;;;;;;;5075885;27;92684;-81
2023/06/01 14:05:26;;;;;;;3.53;1.58;;;;;;;;;;5082288;27;95237;-80
2023/06/01 14:08:10;;;;;;;3.05;1.60;;;;;;;;;;5081022;27;92432;-81
2023/06/01 14:10:36;;;;;;;3.97;1.50;;;;;;;;;;5081802;27;92463;-80
2023/06/01 14:13:03;;;;;;;3.80;1.40;;;;;;;;;;5081868;27;97353;-80
2023/06/01 14:15:30;;;;;;;3.10;1.23;;;;;;;;;;5080950;27;92275;-81
2023/06/01 14:17:57;;;;;;;3.22;1.30;;;;;;;;;;5080591;27;93899;-81
2023/06/01 14:20:23;;;;;;;3.75;1.50;;;;;;;;;;5066291;27;95375;-81
2023/06/01 14:22:50;;;;;;;2.47;1.25;;;;;;;;;;5082063;27;91317;-80
2023/06/01 14:25:17;;;;;;;3.53;1.30;;;;;;;;;;5079799;27;92380;-81
2023/06/01 14:27:43;;;;;;;2.35;1.35;;;;;;;;;;5085271;27;92865;-81
2023/06/01 14:30:10;;;;;;;2.25;1.23;;;;;;;;;;5080681;27;94577;-80
2023/06/01 14:32:37;;;;;;;2.72;1.30;;;;;;;;;;5081549;27;93003;-79
2023/06/01 14:35:03;;;;;;;5.10;1.45;;;;;;;;;;5076333;27;91995;-79
2023/06/01 14:37:31;;;;;;;2.92;1.40;;;;;;;;;;5081153;27;93047;-79
2023/06/01 14:40:14;;;;;;;2.65;1.25;;;;;;;;;;5068446;27;94982;-80
2023/06/01 14:42:40;;;;;;;3.60;1.40;;;;;;;;;;5076816;27;92115;-80
2023/06/01 14:45:07;;;;;;;3.55;1.40;;;;;;;;;;5080378;27;95258;-81
2023/06/01 14:47:34;;;;;;;3.67;1.30;;;;;;;;;;5081065;27;92318;-81
2023/06/01 14:50:00;;;;;;;3.25;1.42;;;;;;;;;;5049416;27;92105;-80
2023/06/01 14:52:27;;;;;;;3.78;1.27;;;;;;;;;;5070859;27;93202;-80
2023/06/01 14:54:53;;;;;;;2.72;1.20;;;;;;;;;;5071743;27;94449;-80
2023/06/01 14:57:20;;;;;;;1.60;1.00;;;;;;;;;;5073005;27;95264;-81